Flight Track Log - Related Links

Times and Time Zones

All times are in EST time to prevent confusion due to time zone crossing. See the FFT556 flight status page for this flight to view local times or setup timezone preferences in your user account.

Time Position Orientation Groundspeed Altitude Reporting Facility
EST Latitude Longitude Course Direction KTS MPH feet Rate Location/Type
Fri 08:23:06 PM 32.7500 -117.2333 278° West 165 190 1,900  Level Southern California TRACON
Fri 08:24:06 PM 32.7564 -117.2900 278° West 192 221 3,400 2,683 Climbing Los Angeles Center
Fri 08:25:09 PM 32.6861 -117.3161 197° South 239 275 7,400 3,168 Climbing Los Angeles Center
Fri 08:26:11 PM 32.6347 -117.2542 135° Southeast 294 338 10,000 2,274 Climbing Los Angeles Center
Fri 08:27:13 PM 32.6267 -117.1428 95° East 332 382 12,100 2,371 Climbing Los Angeles Center
Fri 08:28:15 PM 32.6150 -117.0200 96° East 364 419 14,900 2,274 Climbing Los Angeles Center
Fri 08:29:17 PM 32.6239 -116.8939 85° East 389 448 16,800 1,935 Climbing Los Angeles Center
Fri 08:30:19 PM 32.7114 -116.8125 38° Northeast 403 464 18,900 2,323 Climbing Los Angeles Center
Fri 08:31:21 PM 32.8322 -116.7269 31° Northeast 416 479 21,600 2,081 Climbing Los Angeles Center
Fri 08:32:23 PM 32.9331 -116.6461 34° Northeast 431 496 23,200 1,645 Climbing Los Angeles Center
Fri 08:33:25 PM 33.0244 -116.5403 44° Northeast 448 516 25,000 1,694 Climbing Los Angeles Center
Fri 08:34:27 PM 33.1186 -116.4322 44° Northeast 460 529 26,700 1,548 Climbing Los Angeles Center
Fri 08:35:29 PM 33.2117 -116.3231 44° Northeast 464 534 28,200 1,200 Climbing Los Angeles Center
Fri 08:36:32 PM 33.3064 -116.2122 44° Northeast 472 543 29,200 1,296 Climbing Los Angeles Center
Fri 08:37:34 PM 33.4036 -116.0997 44° Northeast 484 557 30,900 1,500 Climbing Los Angeles Center
Fri 08:38:36 PM 33.4969 -115.9900 44° Northeast 474 545 32,300 1,403 Climbing Los Angeles Center
Fri 08:39:38 PM 33.6106 -115.8581 44° Northeast 473 544 33,800 1,161 Climbing Los Angeles Center
Fri 08:40:40 PM 33.7047 -115.7456 45° Northeast 476 548 34,700 581 Climbing Los Angeles Center
Fri 08:41:42 PM 33.7992 -115.6350 44° Northeast 476 548 35,000 97 Climbing Los Angeles Center
Fri 08:42:44 PM 33.8933 -115.5236 44° Northeast 474 545 34,900 -48 Descending Los Angeles Center
Fri 08:43:46 PM 33.9867 -115.4136 44° Northeast 472 543 34,900 48 Level Los Angeles Center
Fri 08:44:48 PM 34.0808 -115.3014 45° Northeast 475 547 35,000 532 Climbing Los Angeles Center
Fri 08:45:50 PM 34.1783 -115.1472 53° Northeast 489 563 36,000 919 Climbing Los Angeles Center
Fri 08:46:52 PM 34.2511 -115.0100 57° Northeast 487 560 36,900 435 Climbing Los Angeles Center
Fri 08:47:54 PM 34.3239 -114.8722 57° Northeast 486 559 36,900  Level Los Angeles Center
Fri 08:48:56 PM 34.3964 -114.7342 57° Northeast 487 560 36,900 48 Level Los Angeles Center
Fri 08:49:58 PM 34.4697 -114.5942 58° Northeast 490 564 37,000 48 Climbing Los Angeles Center
Fri 08:51:00 PM 34.5425 -114.4536 58° Northeast 493 567 37,000  Level Los Angeles Center
Fri 08:52:02 PM 34.6286 -114.2864 58° Northeast 490 564 37,000  Level Los Angeles Center
Fri 08:53:04 PM 34.7050 -114.1389 58° Northeast 488 562 37,000  Level Los Angeles Center
Fri 08:54:06 PM 34.7764 -114.0006 58° Northeast 486 559 37,000  Level Los Angeles Center
Fri 08:55:08 PM 34.8461 -113.8619 58° Northeast 490 564 37,000  Level Los Angeles Center
Fri 08:56:10 PM 34.9183 -113.7250 57° Northeast 484 557 37,000  Level Los Angeles Center
Fri 08:57:12 PM 34.9897 -113.5858 58° Northeast 484 557 37,000  Level Los Angeles Center
Fri 08:58:14 PM 35.0617 -113.4444 58° Northeast 492 566 37,000  Level Los Angeles Center
Fri 08:59:16 PM 35.1500 -113.2733 58° Northeast 498 573 37,000  Level Los Angeles Center
Fri 09:00:18 PM 35.2258 -113.1239 58° Northeast 498 573 37,000 48 Level Los Angeles Center
Fri 09:01:20 PM 35.2972 -112.9819 58° Northeast 494 568 37,100  Climbing Los Angeles Center
Fri 09:02:22 PM 35.3758 -112.8244 58° Northeast 492 566 37,000 -48 Descending Los Angeles Center
Fri 09:03:24 PM 35.4486 -112.6828 58° Northeast 494 568 37,000  Level Los Angeles Center
Fri 09:04:26 PM 35.5150 -112.5469 59° Northeast 492 566 37,000  Level Los Angeles Center
Fri 09:05:27 PM 35.5869 -112.4039 58° Northeast 495 570 37,000  Level Los Angeles Center
Fri 09:06:29 PM 35.6589 -112.2592 59° Northeast 496 571 37,000  Level Los Angeles Center
Fri 09:07:31 PM 35.7297 -112.1161 59° Northeast 494 568 37,000  Level Los Angeles Center
Fri 09:08:34 PM 35.8153 -111.9419 59° Northeast 499 574 37,000  Level Los Angeles Center
Fri 09:09:35 PM 35.8867 -111.7961 59° Northeast 499 574 37,000  Level Los Angeles Center
Fri 09:10:37 PM 35.9600 -111.6439 59° Northeast 494 568 37,000  Level Los Angeles Center
Fri 09:11:44 PM 36.0306 -111.4994 59° Northeast 495 570 37,000  Level Denver Center
Fri 09:12:45 PM 36.1156 -111.3256 59° Northeast 494 568 37,000  Level Denver Center
Fri 09:13:42 PM 36.1711 -111.2081 60° Northeast 494 568 37,000  Level Los Angeles Center
Fri 09:14:44 PM 36.2403 -111.0619 60° Northeast 494 568 37,000  Level Los Angeles Center
Fri 09:15:46 PM 36.3258 -110.8853 59° Northeast 503 579 37,000  Level Los Angeles Center
Fri 09:16:53 PM 36.4033 -110.7447 56° Northeast 495 570 37,000  Level Denver Center
Fri 09:17:54 PM 36.4806 -110.6067 55° Northeast 490 564 37,000  Level Denver Center
Fri 09:18:56 PM 36.5744 -110.4367 55° Northeast 496 571 37,000 48 Level Denver Center
Fri 09:19:58 PM 36.6525 -110.2950 55° Northeast 497 572 37,100  Climbing Denver Center
Fri 09:21:00 PM 36.7303 -110.1544 55° Northeast 496 571 37,000 -48 Descending Denver Center
Fri 09:22:02 PM 36.8039 -110.0203 56° Northeast 493 567 37,000  Level Denver Center
Fri 09:23:16 PM 36.9039 -109.8394 55° Northeast 494 568 37,000  Level Denver Center
Fri 09:24:18 PM 36.9892 -109.6803 56° Northeast 492 566 37,000  Level Denver Center
Fri 09:25:20 PM 37.0633 -109.5439 56° Northeast 494 568 37,000  Level Denver Center
Fri 09:26:22 PM 37.1375 -109.4064 56° Northeast 495 570 37,000  Level Denver Center
Fri 09:27:23 PM 37.2236 -109.2453 56° Northeast 496 571 37,000  Level Denver Center
Fri 09:28:25 PM 37.2983 -109.1058 56° Northeast 500 575 37,000  Level Denver Center
Fri 09:29:27 PM 37.3850 -108.9428 56° Northeast 502 578 37,000  Level Denver Center
Fri 09:30:29 PM 37.4594 -108.8031 56° Northeast 502 578 37,000  Level Denver Center
Fri 09:31:31 PM 37.5456 -108.6389 56° Northeast 502 578 37,000  Level Denver Center
Fri 09:32:33 PM 37.6189 -108.4969 57° Northeast 503 579 37,000  Level Denver Center
Fri 09:33:35 PM 37.7050 -108.3339 56° Northeast 501 577 37,000  Level Denver Center
Fri 09:34:36 PM 37.7789 -108.1922 57° Northeast 503 579 37,000  Level Denver Center
Fri 09:35:38 PM 37.8522 -108.0503 57° Northeast 503 579 37,000  Level Denver Center
Fri 09:36:40 PM 37.9383 -107.8844 57° Northeast 504 580 37,000 48 Level Denver Center
Fri 09:37:42 PM 38.0108 -107.7389 58° Northeast 507 583 37,100  Climbing Denver Center
Fri 09:38:44 PM 38.0900 -107.5858 57° Northeast 501 577 37,000 -48 Descending Denver Center
Fri 09:39:46 PM 38.1747 -107.4211 57° Northeast 501 577 37,000  Level Denver Center
Fri 09:40:48 PM 38.2464 -107.2772 58° Northeast 503 579 37,000  Level Denver Center
Fri 09:41:50 PM 38.3211 -107.1303 57° Northeast 504 580 37,000  Level Denver Center
Fri 09:42:51 PM 38.3958 -106.9794 58° Northeast 504 580 37,000  Level Denver Center
Fri 09:43:53 PM 38.4722 -106.8269 57° Northeast 508 585 37,000 -387 Level Denver Center
Fri 09:44:55 PM 38.5619 -106.6447 58° Northeast 508 585 36,200 -871 Descending Denver Center
Fri 09:45:57 PM 38.6378 -106.4928 57° Northeast 507 583 35,200 -1,113 Descending Denver Center
Fri 09:46:59 PM 38.7139 -106.3369 58° Northeast 513 590 33,900 -2,177 Descending Denver Center
Fri 09:48:01 PM 38.7958 -106.1669 58° Northeast 517 595 30,700 -3,048 Descending Denver Center
Fri 09:49:03 PM 38.8664 -106.0250 57° Northeast 505 581 27,600 -2,710 Descending Denver Center
Fri 09:50:05 PM 38.9383 -105.8728 59° Northeast 503 579 25,100 -2,516 Descending Denver Center
Fri 09:51:07 PM 39.0164 -105.7139 58° Northeast 481 554 22,400 -2,244 Descending Denver Center
Fri 09:52:08 PM 39.0889 -105.5619 58° Northeast 453 521 20,500 -1,366 Descending Denver Center
Fri 09:53:10 PM 39.1439 -105.4506 57° Northeast 400 460 19,600 -1,210 Descending Denver Center
Fri 09:54:12 PM 39.2200 -105.3511 45° Northeast 358 412 18,000 -1,597 Descending Denver Center
Fri 09:55:14 PM 39.2867 -105.2614 46° Northeast 348 400 16,300 -1,984 Descending Denver Center
Fri 09:56:16 PM 39.3311 -105.1364 65° Northeast 360 414 13,900 -1,597 Descending Denver Center
Fri 09:57:18 PM 39.3700 -105.0206 66° East 356 410 13,000 -488 Descending Denver Center
Fri 09:58:19 PM 39.4006 -104.9169 69° East 318 366 12,900 -488 Descending Denver Center
Fri 09:59:21 PM 39.4564 -104.8472 44° Northeast 262 302 12,000 -435 Descending Denver Center
Fri 10:00:23 PM 39.5203 -104.8056 27° Northeast 257 296 12,000 -435 Level Denver Center
Fri 10:01:25 PM 39.5844 -104.7492 34° Northeast 266 306 11,100 -871 Descending Denver Center
Fri 10:02:27 PM 39.6419 -104.6944 36° Northeast 258 297 10,200 -1,073 Descending Denver Center
Fri 10:03:28 PM 39.6953 -104.6631 24° Northeast 215 247 8,900 -1,610 Descending Denver Center
Fri 10:04:30 PM 39.7561 -104.6619 North 204 235 6,900 -1,403 Descending Denver Center
Fri 10:05:32 PM 39.8019 -104.6611 North 169 194 6,000 -726 Descending Denver Center
Fri 10:06:34 PM 39.8364 -104.6606 North 140 161 5,400 -581 Descending Denver Center

Login

Don't have an account? Register now (free) for customized features, flight alerts, and more!